Latest Weather Observations for Strahan

IDT60801

Issued at 7:51 pm EDT Thursday 17 October 2019 (issued every 10 minutes, with the page automatically refreshed every 10 minutes)

About weather observations | Map of weather stations | Latest weather observations for TAS | Other Formats
Station Details ID: 097072 Name: STRAHAN AERODROME Lat: -42.16 Lon: 145.29 Height: 21.0 m
Data from the previous 72 hours. | See also: Recent months at Strahan
Date/Time
EDT
Temp
°C
App
Temp
°C
Dew
Point
°C
Rel
Hum
%
Delta-T
°C
Wind Press
QNH
hPa
Press
MSL
hPa
Rain since
9am
mm
Dir  Spd
km/h
Gust
km/h
Spd
kts
Gust
kts
17/07:30pm 11.3 8.3 6.2 71 2.4 W 11 15 6 8 1009.2 1009.2 0.0
17/07:00pm 12.6 9.3 6.2 65 3.0 WSW 13 17 7 9 1008.7 1008.7 0.0
17/06:30pm 13.3 9.6 6.4 63 3.3 WSW 15 20 8 11 1008.4 1008.4 0.0
17/06:00pm 13.6 8.9 6.2 61 3.5 WSW 20 26 11 14 1008.0 1008.0 0.0
17/05:30pm 14.5 9.5 6.3 58 3.9 WSW 22 30 12 16 1007.6 1007.6 0.0
17/05:00pm 14.6 9.4 5.7 55 4.2 WSW 22 30 12 16 1007.1 1007.1 0.0
17/04:30pm 15.2 9.7 6.0 54 4.4 WSW 24 30 13 16 1006.6 1006.6 0.0
17/04:00pm 15.6 9.8 6.1 53 4.6 WSW 26 33 14 18 1006.3 1006.3 0.0
17/03:30pm 16.2 11.0 7.2 55 4.5 WSW 24 30 13 16 1006.2 1006.2 0.0
17/03:00pm 15.8 10.4 6.3 53 4.6 WSW 24 30 13 16 1006.1 1006.1 0.0
17/02:30pm 15.9 10.7 7.1 56 4.4 WSW 24 32 13 17 1006.3 1006.3 0.0
17/02:00pm 15.6 10.4 7.1 57 4.2 WSW 24 30 13 16 1006.1 1006.1 0.0
17/01:30pm 15.5 10.2 7.0 57 4.2 WSW 24 32 13 17 1006.1 1006.1 0.0
17/01:00pm 15.8 11.4 7.3 57 4.2 WSW 20 28 11 15 1006.0 1006.0 0.0
17/12:30pm 15.5 10.6 8.3 62 3.6 WSW 24 30 13 16 1005.8 1005.8 0.0
17/12:00pm 13.3 8.7 6.4 63 3.3 WSW 20 28 11 15 1005.8 1005.8 0.0
17/11:30am 15.6 12.4 5.2 50 4.9 S 11 22 6 12 1005.7 1005.7 0.0
17/11:00am 15.0 12.2 6.8 58 4.0 S 11 22 6 12 1005.8 1005.8 0.0
17/10:30am 14.4 11.7 7.5 63 3.4 S 11 17 6 9 1005.9 1005.9 0.0
17/10:00am 13.5 11.4 6.8 64 3.2 SE 7 13 4 7 1005.7 1005.7 0.0
17/09:30am 11.6 9.1 6.5 71 2.4 SSE 9 13 5 7 1005.6 1005.6 0.0
17/09:00am 11.0 9.1 6.9 76 2.0 SSE 6 9 3 5 1005.6 1005.6 0.0
17/08:30am 9.9 8.7 6.3 78 1.7 ENE 2 7 1 4 1005.3 1005.3 0.0
17/08:00am 8.6 8.0 7.4 92 0.6 CALM 0 6 0 3 1005.1 1005.1 0.0
17/07:30am 6.4 5.4 5.8 96 0.3 CALM 0 0 0 0 1005.1 1005.1 0.0
17/07:00am 4.3 2.9 3.4 94 0.4 CALM 0 7 0 4 1004.8 1004.8 0.0
17/06:30am 3.9 1.3 3.0 94 0.4 ENE 6 9 3 5 1004.8 1004.8 0.0
17/06:00am 4.4 1.9 3.5 94 0.4 ESE 6 7 3 4 1004.5 1004.5 0.0
17/05:30am 4.1 2.2 3.1 93 0.4 SE 2 6 1 3 1004.7 1004.7 0.0
17/05:00am 4.5 1.4 3.5 93 0.4 ESE 9 9 5 5 1004.8 1004.8 0.0
17/04:30am 5.5 3.0 4.5 93 0.4 NE 7 9 4 5 1005.0 1005.0 0.0
17/04:00am 5.6 2.3 4.7 94 0.4 NNE 11 13 6 7 1005.3 1005.3 0.0
17/03:30am 5.0 2.0 4.3 95 0.3 N 9 11 5 6 1005.7 1005.7 0.0
17/03:00am 4.4 1.6 3.4 93 0.4 N 7 13 4 7 1006.1 1006.1 0.0
17/02:30am 5.0 3.6 3.8 92 0.5 CALM 0 0 0 0 1006.3 1006.3 0.0
17/02:00am 6.0 4.1 4.8 92 0.5 NE 4 7 2 4 1006.7 1006.7 0.0
17/01:30am 6.0 3.5 5.0 93 0.4 NE 7 9 4 5 1007.0 1007.0 0.0
17/01:00am 5.9 4.0 4.7 92 0.5 ENE 4 9 2 5 1007.3 1007.3 0.0
17/12:30am 6.2 3.7 4.8 91 0.6 NE 7 11 4 6 1007.7 1007.7 0.0
17/12:00am 6.5 3.7 5.1 91 0.6 NNE 9 11 5 6 1007.8 1007.8 0.0
 
Date/Time
EDT
Temp
°C
App
Temp
°C
Dew
Point
°C
Rel
Hum
%
Delta-T
°C
Wind Press
QNH
hPa
Press
MSL
hPa
Rain since
9am
mm
Dir  Spd
km/h
Gust
km/h
Spd
kts
Gust
kts
16/11:30pm 6.4 3.6 5.0 91 0.6 NNE 9 9 5 5 1007.9 1007.9 0.0
16/11:00pm 7.0 4.2 5.3 89 0.8 NNE 9 11 5 6 1008.0 1008.0 0.0
16/10:30pm 7.2 5.0 5.2 87 0.9 N 6 7 3 4 1008.2 1008.2 0.0
16/10:00pm 8.5 6.8 6.0 84 1.1 NE 4 7 2 4 1008.2 1008.2 0.0
16/09:30pm 9.6 7.2 6.9 83 1.3 NNE 9 11 5 6 1008.4 1008.4 0.0
16/09:00pm 10.1 9.4 7.0 81 1.5 CALM 0 0 0 0 1008.5 1008.5 0.0
16/08:30pm 10.7 10.0 7.0 78 1.8 CALM 0 0 0 0 1008.3 1008.3 0.0
16/08:00pm 10.9 9.8 7.0 77 1.9 W 2 6 1 3 1008.2 1008.2 0.0
16/07:30pm 11.4 9.3 6.5 72 2.3 W 7 11 4 6 1008.2 1008.2 0.0
16/07:00pm 12.4 9.9 6.5 67 2.8 WSW 9 15 5 8 1008.1 1008.1 0.0
16/06:30pm 12.5 8.8 6.3 66 2.9 WSW 15 20 8 11 1008.2 1008.2 0.0
16/06:00pm 12.8 8.4 6.6 66 3.0 W 19 24 10 13 1008.1 1008.1 0.0
16/05:30pm 13.6 8.6 6.5 62 3.4 W 22 30 12 16 1008.1 1008.1 0.0
16/05:00pm 13.6 8.5 6.0 60 3.6 WNW 22 28 12 15 1008.2 1008.2 0.0
16/04:30pm 14.0 9.6 7.5 65 3.2 W 20 28 11 15 1007.9 1007.9 0.0
16/04:00pm 14.2 9.4 7.3 63 3.4 W 22 32 12 17 1008.0 1008.0 0.0
16/03:30pm 14.3 9.8 7.1 62 3.5 WNW 20 28 11 15 1008.2 1008.2 0.0
16/03:00pm 14.3 9.2 6.2 58 3.9 W 22 28 12 15 1008.4 1008.4 0.0
16/02:30pm 13.6 8.4 5.7 59 3.7 WNW 22 26 12 14 1008.6 1008.6 0.0
16/02:00pm 13.7 8.4 4.8 55 4.1 W 22 28 12 15 1008.8 1008.8 0.0
16/01:30pm 14.5 9.0 3.9 49 4.8 WNW 22 28 12 15 1009.0 1009.0 0.0
16/01:00pm 14.3 9.2 4.3 51 4.6 W 20 28 11 15 1008.9 1008.9 0.0
16/12:30pm 14.7 10.1 5.5 54 4.4 WNW 19 28 10 15 1009.5 1009.5 0.0
16/12:00pm 14.1 9.2 4.9 54 4.3 WNW 20 28 11 15 1009.7 1009.7 0.0
16/11:30am 14.2 9.5 5.3 55 4.2 WNW 19 26 10 14 1010.0 1010.0 0.0
16/11:00am 14.0 9.7 5.4 56 4.1 WNW 17 24 9 13 1010.2 1010.2 0.0
16/10:30am 13.6 10.3 4.5 54 4.2 N 11 19 6 10 1010.5 1010.5 0.0
16/10:00am 12.5 9.1 4.2 57 3.8 NNE 11 19 6 10 1011.0 1011.1 0.0
16/09:30am 11.5 7.0 4.3 61 3.2 N 17 22 9 12 1011.4 1011.5 0.0
16/09:00am 10.7 6.9 5.7 71 2.3 NNE 15 20 8 11 1011.7 1011.8 0.0
16/08:30am 9.0 5.5 5.4 78 1.6 NNE 13 20 7 11 1011.8 1011.9 0.0
16/08:00am 7.3 3.3 4.8 84 1.1 NNE 15 20 8 11 1011.9 1012.0 0.0
16/07:30am 5.9 2.2 4.2 89 0.7 NNE 13 20 7 11 1011.8 1011.9 0.0
16/07:00am 4.8 0.9 3.3 90 0.6 NNE 13 17 7 9 1011.8 1011.9 0.0
16/06:30am 5.0 0.4 3.5 90 0.6 NNE 17 20 9 11 1011.6 1011.7 0.0
16/06:00am 5.3 0.7 3.8 90 0.6 NNE 17 20 9 11 1011.7 1011.8 0.0
16/05:30am 5.5 2.1 4.0 90 0.6 N 11 17 6 9 1011.8 1011.9 0.0
16/05:00am 5.7 2.0 4.2 90 0.6 NNE 13 19 7 10 1011.7 1011.8 0.0
16/04:30am 5.8 2.1 4.4 91 0.6 NNE 13 17 7 9 1011.8 1011.9 0.0
16/04:00am 5.7 2.0 4.3 91 0.6 NNE 13 17 7 9 1011.9 1012.0 0.0
16/03:30am 5.6 1.9 4.2 91 0.6 N 13 17 7 9 1012.1 1012.2 0.0
16/03:00am 6.0 2.3 4.6 91 0.6 NNE 13 17 7 9 1012.1 1012.2 0.0
16/02:30am 5.9 1.8 4.5 91 0.6 NNE 15 19 8 10 1012.3 1012.4 0.0
16/02:00am 6.0 1.9 4.6 91 0.6 NNE 15 17 8 9 1012.4 1012.5 0.0
16/01:30am 6.1 2.1 4.9 92 0.5 NNE 15 19 8 10 1012.8 1012.9 0.0
16/01:00am 6.3 2.3 4.9 91 0.6 NNE 15 17 8 9 1013.1 1013.2 0.0
16/12:30am 6.5 3.0 5.3 92 0.5 NNE 13 17 7 9 1013.0 1013.1 0.0
16/12:00am 6.5 2.9 5.1 91 0.6 NNE 13 15 7 8 1013.2 1013.3 0.0
 
Date/Time
EDT
Temp
°C
App
Temp
°C
Dew
Point
°C
Rel
Hum
%
Delta-T
°C
Wind Press
QNH
hPa
Press
MSL
hPa
Rain since
9am
mm
Dir  Spd
km/h
Gust
km/h
Spd
kts
Gust
kts
15/11:30pm 6.6 3.4 5.2 91 0.6 NNE 11 13 6 7 1013.3 1013.4 0.0
15/11:00pm 6.8 3.3 5.4 91 0.6 NNE 13 15 7 8 1013.2 1013.3 0.0
15/10:30pm 6.9 4.2 5.7 92 0.5 NNE 9 11 5 6 1013.3 1013.4 0.0
15/10:00pm 6.3 3.4 4.9 91 0.6 N 9 11 5 6 1013.4 1013.5 0.0
15/09:30pm 6.4 4.4 4.4 87 0.9 NNE 4 7 2 4 1013.4 1013.5 0.0
15/09:00pm 7.6 6.5 5.2 85 1.1 CALM 0 2 0 1 1013.3 1013.4 0.0
15/08:30pm 8.1 5.8 5.7 85 1.1 NW 7 9 4 5 1013.3 1013.4 0.0
15/08:00pm 8.9 6.2 5.5 79 1.5 WNW 9 13 5 7 1013.1 1013.2 0.0
15/07:30pm 10.1 7.4 5.5 73 2.1 WNW 9 11 5 6 1012.7 1012.8 0.0
15/07:00pm 11.4 8.3 5.7 68 2.6 W 11 15 6 8 1012.5 1012.6 0.0
15/06:30pm 12.1 8.5 5.0 62 3.3 WSW 13 17 7 9 1012.2 1012.3 0.0
15/06:00pm 12.5 8.9 5.0 60 3.5 W 13 17 7 9 1011.9 1012.0 0.0
15/05:30pm 12.1 8.3 5.7 65 3.0 W 15 20 8 11 1011.7 1011.8 0.0
15/05:00pm 13.1 9.4 8.0 71 2.5 WSW 17 20 9 11 1012.1 1012.2 0.0
15/04:30pm 12.4 8.4 6.7 68 2.7 WSW 17 20 9 11 1012.3 1012.4 0.0
15/04:00pm 12.4 8.5 6.9 69 2.6 W 17 22 9 12 1012.2 1012.3 0.0
15/03:30pm 12.3 8.3 6.8 69 2.6 WSW 17 20 9 11 1012.3 1012.4 0.0
15/03:00pm 12.3 8.6 6.4 67 2.8 WSW 15 19 8 10 1012.4 1012.5 0.0
15/02:30pm 12.6 8.6 6.6 67 2.9 WSW 17 20 9 11 1012.5 1012.6 0.0
15/02:00pm 12.5 7.8 5.9 64 3.1 WSW 20 26 11 14 1012.5 1012.6 0.0
15/01:30pm 12.9 8.1 5.8 62 3.3 WSW 20 28 11 15 1012.4 1012.5 0.0
15/01:00pm 12.8 9.1 6.2 64 3.1 W 15 24 8 13 1012.3 1012.4 0.0
15/12:30pm 13.5 9.7 7.7 68 2.9 WSW 17 24 9 13 1012.3 1012.4 0.0
15/12:00pm 12.9 9.4 7.4 69 2.7 W 15 20 8 11 1012.3 1012.4 0.0
15/11:30am 12.5 9.5 7.6 72 2.4 WSW 13 17 7 9 1012.3 1012.4 0.0
15/11:00am 12.9 10.5 8.6 75 2.1 WSW 11 15 6 8 1012.3 1012.4 0.0
15/10:30am 12.4 10.6 7.9 74 2.2 SSW 7 15 4 8 1012.7 1012.8 0.0
15/10:00am 11.5 9.2 7.6 77 1.9 SW 9 13 5 7 1012.8 1012.9 0.0
15/09:30am 10.9 7.8 7.4 79 1.7 SW 13 17 7 9 1012.9 1013.0 0.0
15/09:00am 11.0 8.0 7.7 80 1.6 SSW 13 17 7 9 1012.8 1012.9 5.6
15/08:30am 10.7 9.4 10.1 96 0.3 S 7 11 4 6 1012.7 1012.8 5.6
15/08:00am 10.3 10.3 9.7 96 0.3 CALM 0 4 0 2 1012.7 1012.8 5.6
15/07:43am 10.2 10.1 9.6 96 0.3 CALM 0 0 0 0 1012.6 1012.7 5.6
15/07:30am 10.0 9.9 9.4 96 0.3 CALM 0 0 0 0 1012.5 1012.6 5.6
15/07:22am 10.0 9.9 9.4 96 0.3 CALM 0 0 0 0 1012.4 1012.5 5.6
15/07:20am 10.0 9.9 9.4 96 0.3 CALM 0 0 0 0 1012.3 1012.4 5.6
15/07:17am 10.0 9.9 9.4 96 0.3 CALM 0 0 0 0 1012.3 1012.4 5.6
15/07:00am 9.9 9.8 9.3 96 0.3 CALM 0 0 0 0 1012.3 1012.4 5.4
15/06:30am 10.1 10.0 9.5 96 0.3 CALM 0 0 0 0 1012.0 1012.1 5.2
15/06:00am 10.1 8.3 9.5 96 0.3 WSW 9 13 5 7 1011.8 1011.9 4.4
15/05:30am 10.1 7.9 9.5 96 0.3 N 11 13 6 7 1011.8 1011.9 2.6
15/05:00am 10.3 7.8 9.7 96 0.3 N 13 17 7 9 1011.8 1011.9 1.0
15/04:54am 10.2 7.6 9.4 95 0.4 N 13 17 7 9 1011.8 1011.9 0.8
15/04:36am 10.3 7.7 9.5 95 0.4 N 13 17 7 9 1011.7 1011.8 0.4
15/04:30am 10.3 7.7 9.5 95 0.4 N 13 17 7 9 1011.8 1011.9 0.4
15/04:26am 10.3 7.7 9.5 95 0.4 N 13 17 7 9 1011.8 1011.9 0.4
15/04:18am 10.3 7.7 9.5 95 0.4 N 13 17 7 9 1011.8 1011.9 0.4
15/04:00am 10.3 8.1 9.5 95 0.4 N 11 13 6 7 1011.9 1012.0 0.0
15/03:30am 10.3 8.5 9.5 95 0.4 N 9 13 5 7 1012.0 1012.1 0.0
15/03:21am 10.2 8.4 9.4 95 0.4 N 9 11 5 6 1012.1 1012.2 0.0
15/03:00am 10.2 8.8 9.4 95 0.4 N 7 11 4 6 1012.3 1012.4 0.0
15/02:30am 10.2 8.8 9.4 95 0.4 N 7 11 4 6 1012.5 1012.6 0.0
15/02:00am 10.4 8.6 9.5 94 0.5 N 9 11 5 6 1012.7 1012.8 0.0
15/01:30am 10.7 8.6 9.8 94 0.5 NW 11 15 6 8 1013.1 1013.2 0.0
15/01:00am 10.3 8.4 9.1 92 0.6 NW 9 13 5 7 1013.3 1013.4 0.0
15/12:30am 10.3 8.4 8.9 91 0.7 NW 9 13 5 7 1013.1 1013.2 0.0
15/12:00am 10.3 10.1 8.9 91 0.7 CALM 0 6 0 3 1013.1 1013.2 0.0
 
Date/Time
EDT
Temp
°C
App
Temp
°C
Dew
Point
°C
Rel
Hum
%
Delta-T
°C
Wind Press
QNH
hPa
Press
MSL
hPa
Rain since
9am
mm
Dir  Spd
km/h
Gust
km/h
Spd
kts
Gust
kts
14/11:30pm 10.2 8.6 8.8 91 0.7 NNE 7 9 4 5 1013.3 1013.4 0.0
14/11:00pm 9.6 9.1 7.9 89 0.8 CALM 0 0 0 0 1013.2 1013.3 0.0
14/10:30pm 10.3 8.7 8.2 87 1.0 WSW 6 11 3 6 1013.0 1013.1 0.0
14/10:08pm 10.8 8.9 8.9 88 0.9 WSW 9 15 5 8 1013.1 1013.2 0.0
14/10:00pm 10.9 9.0 9.2 89 0.8 WSW 9 13 5 7 1013.1 1013.2 0.0
14/09:36pm 10.9 9.1 9.3 90 0.8 WNW 9 11 5 6 1013.0 1013.1 0.0
14/09:30pm 11.0 9.2 9.4 90 0.8 WNW 9 13 5 7 1012.9 1013.0 0.0
14/09:00pm 11.1 8.9 9.2 88 0.9 W 11 15 6 8 1012.6 1012.7 0.0
14/08:36pm 11.4 8.9 9.8 90 0.8 W 13 19 7 10 1012.4 1012.5 0.0
14/08:30pm 11.4 8.6 10.0 91 0.7 W 15 20 8 11 1012.3 1012.4 0.0
14/08:21pm 11.6 9.6 10.3 92 0.7 W 11 19 6 10 1012.1 1012.2 0.0
14/08:00pm 11.6 10.1 10.5 93 0.6 W 9 11 5 6 1011.9 1012.0 0.0

Other formats

Comma delimited format used in spreadsheet applications
http://www.bom.gov.au/fwo/IDT60801/IDT60801.94956.axf

JavaScript Object Notation format (JSON) in row-major order
http://www.bom.gov.au/fwo/IDT60801/IDT60801.94956.json

Data quality

Most of these data are generated automatically and are frequently updated. Quality checks on data are not normally performed. It is possible for incorrect values to appear. Refer to information at About Latest Weather Observations and please check the disclaimer before using these data.